Terminal Aerodrome Forecast
Issued by NWS

Home | Current Version | Previous Version | Text Only | Print | Product List | Glossary On
Versions: 1 2 3 4 5 6 7 8 9 10 11 12
000
FTUS45 KLKN 230520
TAFELY
TAF
KELY 230520Z 2306/2406 15006KT 5SM -SN SCT015 OVC030
     FM231900 35012G22KT P6SM VCSH BKN035
     FM240200 34011KT P6SM OVC030
      AMD NOT SKED=

USA.gov is the U.S. government's official web portal to all federal, state and local government web resources and services.